Time;durP1;ratioP1;P1;durP2;ratioP2;P2;SDS_P1;SDS_P2;PMS_P1;PMS_P2;Temp;Humidity;BMP_temperature;BMP_pressure;BME280_temperature;BME280_humidity;BME280_pressure;Samples;Min_cycle;Max_cycle;Signal;HPM_P1;HPM_P2
2021/05/24 00:01:56;;;;;;;56.88;18.15;;;;;;;12.11;100.00;101170.34;1832102;77;20923;-82
2021/05/24 00:04:22;;;;;;;58.13;18.15;;;;;;;12.06;100.00;101167.08;1806321;78;21070;-82
2021/05/24 00:06:48;;;;;;;60.40;16.70;;;;;;;12.00;100.00;101168.07;1806137;79;20970;-82
2021/05/24 00:09:14;;;;;;;56.63;16.77;;;;;;;11.96;100.00;101162.37;1806316;79;20920;-82
2021/05/24 00:11:40;;;;;;;55.92;16.40;;;;;;;11.89;100.00;101164.47;1806263;79;20884;-82
2021/05/24 00:14:07;;;;;;;45.48;14.65;;;;;;;11.94;100.00;101163.70;1806185;78;20915;-82
2021/05/24 00:16:34;;;;;;;38.48;13.35;;;;;;;11.90;100.00;101158.53;1806199;79;21825;-82
2021/05/24 00:18:59;;;;;;;38.35;13.00;;;;;;;11.90;100.00;101153.13;1806279;79;21077;-82
2021/05/24 00:21:25;;;;;;;39.45;12.58;;;;;;;11.90;100.00;101155.29;1806284;79;21103;-82
2021/05/24 00:23:52;;;;;;;39.23;11.88;;;;;;;11.93;100.00;101162.08;1806202;79;20959;-82
2021/05/24 00:26:18;;;;;;;35.70;11.38;;;;;;;11.95;100.00;101154.54;1806172;79;21074;-82
2021/05/24 00:28:44;;;;;;;30.37;10.75;;;;;;;11.96;100.00;101162.37;1806347;79;21032;-82
2021/05/24 00:31:10;;;;;;;38.30;12.00;;;;;;;11.97;100.00;101167.23;1806404;79;20856;-82
2021/05/24 00:33:35;;;;;;;37.48;11.50;;;;;;;11.93;100.00;101168.83;1806302;79;21011;-82
2021/05/24 00:36:02;;;;;;;37.70;11.08;;;;;;;11.88;100.00;101160.13;1806276;78;21002;-81
2021/05/24 00:38:27;;;;;;;29.45;10.53;;;;;;;11.90;100.00;101155.83;1808068;79;21030;-82
2021/05/24 00:40:53;;;;;;;30.80;9.90;;;;;;;11.90;100.00;101152.59;1811665;78;22157;-81
2021/05/24 00:43:19;;;;;;;25.20;9.75;;;;;;;11.90;100.00;101156.64;1807240;79;20883;-82
2021/05/24 00:45:45;;;;;;;29.70;9.90;;;;;;;11.90;100.00;101150.43;1807460;79;21610;-82
2021/05/24 00:48:11;;;;;;;26.42;9.05;;;;;;;11.89;100.00;101148.27;1763051;81;21021;-82
2021/05/24 00:50:39;;;;;;;25.75;10.03;;;;;;;11.87;100.00;101146.34;1754572;81;20900;-82
2021/05/24 00:53:05;;;;;;;27.75;10.18;;;;;;;11.87;100.00;101152.29;1748469;78;21150;-81
2021/05/24 00:55:31;;;;;;;29.12;10.40;;;;;;;11.80;100.00;101150.58;1760768;78;21050;-82
2021/05/24 00:57:57;;;;;;;37.20;12.98;;;;;;;11.78;100.00;101146.50;1759091;78;21043;-82
2021/05/24 01:00:43;;;;;;;49.05;14.65;;;;;;;11.79;100.00;101150.81;1768558;79;21023;-82
2021/05/24 01:03:11;;;;;;;44.83;13.35;;;;;;;11.80;100.00;101146.53;1752830;81;21309;-82
2021/05/24 01:05:38;;;;;;;46.40;14.95;;;;;;;11.74;100.00;101150.78;1764638;80;21150;-82
2021/05/24 01:08:05;;;;;;;50.33;14.63;;;;;;;11.76;100.00;101150.78;1785564;79;21065;-81
2021/05/24 01:10:32;;;;;;;46.73;13.68;;;;;;;11.82;100.00;101153.84;1772044;78;21607;-81
2021/05/24 01:13:00;;;;;;;44.75;14.33;;;;;;;11.87;100.00;101146.89;1773280;80;21594;-82
2021/05/24 01:15:28;;;;;;;41.18;13.08;;;;;;;11.91;100.00;101141.25;1767177;80;21535;-82
2021/05/24 01:17:55;;;;;;;39.73;13.00;;;;;;;11.94;100.00;101138.87;1754581;81;22256;-82
2021/05/24 01:20:26;;;;;;;37.35;13.28;;;;;;;11.95;100.00;101138.33;1754501;81;21059;-81
2021/05/24 01:25:31;;;;;;;36.35;12.65;;;;;;;11.92;100.00;101130.20;1777057;80;21075;-81
2021/05/24 01:27:57;;;;;;;42.40;13.90;;;;;;;11.94;100.00;101133.47;1785838;80;21630;-81
2021/05/24 01:30:23;;;;;;;46.05;14.05;;;;;;;11.94;100.00;101133.98;1757120;80;21123;-81
2021/05/24 01:32:50;;;;;;;49.18;14.58;;;;;;;11.97;100.00;101134.82;1785518;79;21056;-82
2021/05/24 01:35:17;;;;;;;44.75;13.68;;;;;;;11.97;100.00;101132.12;1785649;79;21040;-82
2021/05/24 01:37:43;;;;;;;35.13;13.08;;;;;;;12.00;100.00;101125.69;1785659;80;21083;-82
2021/05/24 01:40:10;;;;;;;42.55;13.03;;;;;;;12.03;100.00;101128.42;1794787;78;21054;-81
2021/05/24 01:42:36;;;;;;;36.60;12.37;;;;;;;12.05;100.00;101134.36;1781850;79;21032;-82
2021/05/24 01:45:04;;;;;;;44.77;13.90;;;;;;;12.07;100.00;101132.23;1797427;79;20996;-81
2021/05/24 01:47:31;;;;;;;55.65;14.38;;;;;;;12.10;100.00;101126.31;1797248;79;21021;-82
2021/05/24 01:49:58;;;;;;;49.90;15.23;;;;;;;12.12;100.00;101121.48;1797417;78;21060;-82
2021/05/24 01:52:24;;;;;;;49.33;15.95;;;;;;;12.10;100.00;101120.10;1797416;79;21540;-82
2021/05/24 01:54:50;;;;;;;47.10;14.73;;;;;;;12.05;100.00;101123.02;1797529;79;21076;-81
2021/05/24 01:57:16;;;;;;;45.40;14.18;;;;;;;11.87;100.00;101121.23;1797397;79;21013;-82
2021/05/24 01:59:43;;;;;;;46.50;13.70;;;;;;;11.79;100.00;101131.91;1797451;78;21028;-82
2021/05/24 02:02:08;;;;;;;33.38;11.90;;;;;;;11.86;100.00;101122.31;1797179;79;21068;-82
2021/05/24 02:04:35;;;;;;;38.60;13.75;;;;;;;11.81;100.00;101122.49;1797394;79;21027;-82
2021/05/24 02:07:01;;;;;;;36.53;13.13;;;;;;;11.82;100.00;101117.39;1797364;79;21879;-82
2021/05/24 02:09:27;;;;;;;33.08;11.53;;;;;;;11.81;100.00;101115.74;1797255;79;21048;-82
2021/05/24 02:11:54;;;;;;;30.27;10.68;;;;;;;11.83;100.00;101114.96;1797327;78;21321;-82
2021/05/24 02:14:21;;;;;;;29.30;11.15;;;;;;;11.89;100.00;101106.95;1797387;79;21044;-82
2021/05/24 02:16:50;;;;;;;29.85;10.08;;;;;;;12.00;100.00;101110.84;1781685;79;21110;-82
2021/05/24 02:19:18;;;;;;;27.58;9.23;;;;;;;12.02;100.00;101105.97;1797345;79;21068;-82
2021/05/24 02:21:44;;;;;;;33.13;9.83;;;;;;;12.08;100.00;101101.97;1797348;79;21044;-81
2021/05/24 02:24:12;;;;;;;25.68;9.83;;;;;;;12.02;100.00;101105.97;1797684;79;21032;-82
2021/05/24 02:26:41;;;;;;;29.67;8.38;;;;;;;12.00;100.00;101108.65;1797441;79;21021;-82
2021/05/24 02:29:08;;;;;;;27.48;8.95;;;;;;;12.09;100.00;101111.19;1797363;79;21561;-81
2021/05/24 02:31:35;;;;;;;22.90;9.15;;;;;;;12.23;100.00;101112.91;1797451;79;21142;-82
2021/05/24 02:34:03;;;;;;;25.30;7.87;;;;;;;12.35;100.00;101118.13;1797390;79;21002;-81
2021/05/24 02:36:30;;;;;;;25.85;8.70;;;;;;;12.32;100.00;101114.05;1797475;79;21036;-81
2021/05/24 02:38:57;;;;;;;20.25;7.60;;;;;;;12.40;100.00;101118.98;1796005;78;21184;-82
2021/05/24 02:41:24;;;;;;;20.90;7.97;;;;;;;12.38;100.00;101117.61;1786650;80;21084;-82
2021/05/24 02:43:50;;;;;;;17.12;6.30;;;;;;;12.52;100.00;101119.34;1768176;79;21084;-82
2021/05/24 02:46:17;;;;;;;18.70;7.42;;;;;;;12.66;100.00;101124.58;1768379;80;21643;-82
2021/05/24 02:48:43;;;;;;;22.48;7.58;;;;;;;12.66;100.00;101132.16;1749016;81;21617;-81
2021/05/24 02:51:09;;;;;;;21.45;7.47;;;;;;;12.64;100.00;101134.30;1749149;80;20901;-81
2021/05/24 02:53:35;;;;;;;18.10;7.20;;;;;;;12.64;100.00;101141.05;1749016;82;20992;-82
2021/05/24 02:56:02;;;;;;;25.72;8.03;;;;;;;12.67;100.00;101142.42;1687882;84;21129;-81
2021/05/24 02:58:28;;;;;;;19.80;6.65;;;;;;;12.71;100.00;101138.95;1687806;84;21096;-81
2021/05/24 03:00:54;;;;;;;18.05;7.35;;;;;;;12.74;100.00;101137.63;1688138;85;21116;-81
2021/05/24 03:03:22;;;;;;;13.05;6.10;;;;;;;12.81;100.00;101136.84;1688238;85;20993;-81
2021/05/24 03:05:48;;;;;;;20.65;6.33;;;;;;;12.88;100.00;101140.15;1688134;84;21076;-81
2021/05/24 03:08:14;;;;;;;17.92;6.90;;;;;;;12.95;100.00;101143.97;1688220;85;21136;-81
2021/05/24 03:10:41;;;;;;;17.75;6.47;;;;;;;13.01;100.00;101143.46;1665288;83;21000;-82
2021/05/24 03:13:08;;;;;;;19.62;6.90;;;;;;;13.10;100.00;101145.39;1702063;83;21544;-82
2021/05/24 03:15:34;;;;;;;16.97;7.15;;;;;;;13.26;100.00;101142.78;1716984;83;21581;-82
2021/05/24 03:18:01;;;;;;;22.75;7.45;;;;;;;13.61;100.00;101134.78;1716763;83;21317;-82
2021/05/24 03:20:27;;;;;;;20.82;7.00;;;;;;;14.33;100.00;101136.25;1729806;82;21028;-81
2021/05/24 03:22:52;;;;;;;17.07;7.05;;;;;;;15.22;100.00;101132.58;1750772;80;20940;-81
2021/05/24 03:25:19;;;;;;;16.07;7.20;;;;;;;16.38;100.00;101140.85;1759484;79;20965;-82
2021/05/24 03:27:47;;;;;;;22.25;7.58;;;;;;;17.33;100.00;101131.99;1762579;79;21079;-81
2021/05/24 03:30:15;;;;;;;33.10;10.38;;;;;;;17.99;100.00;101127.55;1756087;79;21015;-81
2021/05/24 03:32:41;;;;;;;33.83;9.38;;;;;;;18.41;100.00;101124.39;1759868;79;21493;-81
2021/05/24 03:35:09;;;;;;;58.58;17.32;;;;;;;19.40;100.00;101127.73;1764489;80;20849;-81
2021/05/24 03:37:36;;;;;;;59.08;18.23;;;;;;;20.16;100.00;101131.48;1760989;79;21023;-81
2021/05/24 03:40:05;;;;;;;53.55;17.30;;;;;;;20.59;100.00;101124.13;1753435;81;20983;-81
2021/05/24 03:42:31;;;;;;;38.20;12.88;;;;;;;20.85;74.79;101120.69;1765900;80;21550;-81
2021/05/24 03:45:00;;;;;;;29.50;8.25;;;;;;;20.93;80.64;101129.51;1766111;81;21034;-81
2021/05/24 03:47:25;;;;;;;16.17;5.15;;;;;;;21.84;86.78;101125.20;1765696;80;21045;-81
2021/05/24 03:49:51;;;;;;;8.78;3.62;;;;;;;22.18;77.50;101126.34;1765744;80;20881;-81
2021/05/24 03:52:18;;;;;;;10.28;3.20;;;;;;;22.60;65.60;101130.12;1765721;80;21771;-81
2021/05/24 03:54:44;;;;;;;7.65;3.27;;;;;;;22.84;66.50;101123.25;1765734;81;21547;-81
2021/05/24 03:57:11;;;;;;;14.55;4.55;;;;;;;22.87;65.16;101125.33;1765897;80;21131;-81
2021/05/24 03:59:38;;;;;;;9.25;3.33;;;;;;;22.58;58.13;101115.09;1765712;80;21020;-81
2021/05/24 04:02:05;;;;;;;5.15;2.35;;;;;;;22.52;60.87;101122.70;1763231;81;21085;-81
2021/05/24 04:04:31;;;;;;;7.15;2.40;;;;;;;22.58;57.32;101122.77;1765842;81;21089;-81
2021/05/24 04:06:59;;;;;;;4.60;2.30;;;;;;;22.95;56.54;101120.41;1765968;80;21528;-81
2021/05/24 04:09:25;;;;;;;4.03;2.30;;;;;;;21.78;59.69;101123.75;1765515;80;21060;-81
2021/05/24 04:11:51;;;;;;;4.85;1.70;;;;;;;21.67;65.18;101124.63;1765914;81;21608;-81
2021/05/24 04:14:18;;;;;;;5.78;2.37;;;;;;;21.41;61.91;101122.41;1765825;80;21004;-81
2021/05/24 04:16:45;;;;;;;5.25;2.60;;;;;;;20.27;72.81;101130.67;1750424;81;21041;-81
2021/05/24 04:19:12;;;;;;;5.15;2.22;;;;;;;20.69;72.42;101133.20;1765882;81;21568;-81
2021/05/24 04:21:40;;;;;;;5.33;2.20;;;;;;;20.73;72.06;101136.34;1765790;80;21556;-81
2021/05/24 04:24:08;;;;;;;5.30;2.50;;;;;;;20.91;73.22;101129.01;1766378;78;21577;-82
2021/05/24 04:26:34;;;;;;;4.97;2.02;;;;;;;21.47;75.48;101124.70;1767205;78;21008;-81
2021/05/24 04:29:00;;;;;;;5.97;2.42;;;;;;;22.77;71.15;101124.34;1765846;80;21556;-81
2021/05/24 04:31:26;;;;;;;6.08;2.00;;;;;;;23.66;61.16;101119.63;1765985;81;20917;-81
2021/05/24 04:33:53;;;;;;;7.80;2.17;;;;;;;23.58;59.64;101121.30;1765951;80;21836;-82
2021/05/24 04:36:19;;;;;;;4.17;2.17;;;;;;;23.24;57.15;101131.17;1765756;80;21048;-82
2021/05/24 04:38:45;;;;;;;7.45;2.22;;;;;;;23.17;57.70;101130.30;1765930;80;20898;-82
2021/05/24 04:41:11;;;;;;;8.63;2.35;;;;;;;23.47;58.59;101128.91;1760395;80;21108;-81
2021/05/24 04:43:39;;;;;;;4.78;2.40;;;;;;;22.55;60.52;101133.03;1722574;82;21087;-81
2021/05/24 04:46:05;;;;;;;6.53;2.72;;;;;;;22.69;64.11;101123.22;1759040;81;21042;-82
2021/05/24 04:48:31;;;;;;;9.20;2.72;;;;;;;22.22;65.56;101119.06;1758870;81;21541;-82
2021/05/24 04:50:57;;;;;;;8.35;2.52;;;;;;;22.45;66.48;101119.09;1758854;81;21054;-82
2021/05/24 04:53:23;;;;;;;5.75;2.42;;;;;;;22.64;65.87;101122.82;1758935;81;20891;-82
2021/05/24 04:55:49;;;;;;;10.45;2.72;;;;;;;22.78;63.01;101119.88;1758996;81;20914;-82
2021/05/24 04:58:15;;;;;;;10.60;3.10;;;;;;;22.92;63.85;101114.73;1759032;81;21090;-82
2021/05/24 05:00:41;;;;;;;10.63;2.70;;;;;;;23.93;62.71;101107.86;1758857;81;20957;-81
2021/05/24 05:05:36;;;;;;;7.25;2.55;;;;;;;25.15;54.38;101104.58;1748700;82;21060;-82
2021/05/24 05:08:02;;;;;;;8.05;2.40;;;;;;;25.29;51.55;101096.72;1765460;80;21047;-81
2021/05/24 05:10:28;;;;;;;8.08;2.05;;;;;;;25.89;50.86;101105.80;1789639;80;21755;-82
2021/05/24 05:12:54;;;;;;;9.75;1.77;;;;;;;26.85;48.70;101100.63;1787972;78;20904;-82
2021/05/24 05:15:20;;;;;;;9.33;1.60;;;;;;;27.40;42.75;101108.45;1787709;78;21020;-82
2021/05/24 05:17:46;;;;;;;12.10;2.17;;;;;;;27.57;41.45;101108.63;1788658;80;21062;-82
2021/05/24 05:20:13;;;;;;;9.28;1.60;;;;;;;27.36;41.05;101102.05;1789439;80;21069;-81
2021/05/24 05:22:39;;;;;;;6.33;1.42;;;;;;;27.91;40.37;101100.03;1789135;78;21141;-83
2021/05/24 05:25:07;;;;;;;3.87;1.50;;;;;;;26.71;41.59;101099.72;1784792;78;20959;-83
2021/05/24 05:27:33;;;;;;;6.67;1.30;;;;;;;26.10;42.02;101112.50;1788434;78;21027;-82
2021/05/24 05:29:59;;;;;;;3.02;1.25;;;;;;;26.07;42.49;101116.77;1788564;78;21018;-81
2021/05/24 05:32:25;;;;;;;3.12;1.70;;;;;;;26.07;42.76;101133.34;1787494;78;21004;-82
2021/05/24 05:34:51;;;;;;;9.95;1.50;;;;;;;26.43;43.78;101140.62;1788990;80;21723;-82
2021/05/24 05:37:19;;;;;;;9.98;2.37;;;;;;;26.62;42.66;101143.30;1783746;78;21073;-82
2021/05/24 05:39:48;;;;;;;8.58;1.75;;;;;;;26.11;44.57;101148.63;1759209;78;21060;-82
2021/05/24 05:42:13;;;;;;;2.60;1.40;;;;;;;26.33;44.34;101144.51;1783408;78;21079;-83
2021/05/24 05:44:39;;;;;;;5.78;1.50;;;;;;;26.58;43.80;101150.12;1778995;78;20922;-82
2021/05/24 05:47:05;;;;;;;8.88;1.60;;;;;;;26.73;40.85;101145.77;1746896;80;21080;-83
2021/05/24 05:49:30;;;;;;;5.35;1.55;;;;;;;26.77;39.95;101145.30;1724481;83;21060;-82
2021/05/24 05:51:56;;;;;;;5.28;1.30;;;;;;;26.58;39.34;101148.75;1723789;83;20969;-82
2021/05/24 05:54:22;;;;;;;4.22;1.60;;;;;;;26.46;39.81;101140.50;1723736;83;21618;-82
2021/05/24 05:56:49;;;;;;;8.15;1.67;;;;;;;26.42;39.36;101141.00;1723677;83;21391;-82
2021/05/24 05:59:18;;;;;;;8.33;1.20;;;;;;;26.31;39.60;101133.80;1723650;83;21119;-82
2021/05/24 06:01:42;;;;;;;6.50;1.57;;;;;;;26.29;38.91;101134.12;1725171;80;21052;-82
2021/05/24 06:04:08;;;;;;;9.90;1.90;;;;;;;25.66;39.46;101125.63;1753444;80;20967;-82
2021/05/24 06:06:34;;;;;;;7.12;1.65;;;;;;;25.80;39.37;101127.42;1794686;78;20896;-82
2021/05/24 06:09:00;;;;;;;4.72;1.30;;;;;;;25.56;40.00;101129.69;1753338;80;20861;-82
2021/05/24 06:11:27;;;;;;;4.90;1.47;;;;;;;25.46;40.54;101133.49;1779594;80;21710;-82
2021/05/24 06:13:53;;;;;;;6.72;1.62;;;;;;;24.97;42.02;101127.39;1779357;80;21057;-82
2021/05/24 06:16:19;;;;;;;10.48;1.70;;;;;;;24.98;41.70;101126.27;1779592;79;20873;-82
2021/05/24 06:18:45;;;;;;;6.30;1.32;;;;;;;24.84;42.28;101122.46;1779676;80;21015;-82
2021/05/24 06:21:11;;;;;;;9.35;1.67;;;;;;;24.71;42.75;101127.75;1765353;79;20916;-82
2021/05/24 06:23:36;;;;;;;4.53;1.62;;;;;;;24.49;43.86;101124.82;1766239;79;21714;-81
2021/05/24 06:26:04;;;;;;;11.70;1.98;;;;;;;24.35;45.72;101123.72;1766004;80;20990;-83
2021/05/24 06:28:30;;;;;;;7.78;1.60;;;;;;;24.39;45.58;101113.64;1774536;80;21017;-85
2021/05/24 06:30:56;;;;;;;7.17;1.90;;;;;;;24.31;44.96;101115.11;1749192;80;21652;-85
2021/05/24 06:33:22;;;;;;;3.02;1.60;;;;;;;24.13;45.37;101117.23;1744278;80;21024;-86
2021/05/24 06:35:48;;;;;;;6.42;1.70;;;;;;;23.82;46.15;101121.80;1778570;80;21100;-86
2021/05/24 06:38:14;;;;;;;3.87;1.92;;;;;;;23.77;46.76;101123.62;1770837;80;20971;-86
2021/05/24 06:40:40;;;;;;;5.15;2.00;;;;;;;23.82;47.01;101121.22;1779247;80;21012;-85
2021/05/24 06:43:10;;;;;;;5.40;2.05;;;;;;;23.94;47.28;101120.48;1763437;80;20979;-84
2021/05/24 06:45:36;;;;;;;4.22;1.95;;;;;;;23.82;48.30;101122.60;1771093;79;21142;-85
2021/05/24 06:48:03;;;;;;;6.60;1.95;;;;;;;23.68;49.84;101124.23;1765715;80;21131;-85
2021/05/24 06:50:29;;;;;;;6.62;1.85;;;;;;;23.93;49.39;101126.56;1763726;80;21650;-85
2021/05/24 06:52:55;;;;;;;7.35;2.12;;;;;;;23.79;50.44;101124.08;1771110;80;21057;-85
2021/05/24 06:55:21;;;;;;;10.78;2.00;;;;;;;23.75;50.81;101136.11;1765880;80;20869;-85
2021/05/24 06:57:47;;;;;;;19.23;5.97;;;;;;;23.58;54.26;101146.06;1731759;82;21067;-84
2021/05/24 07:00:15;;;;;;;16.90;4.22;;;;;;;23.44;61.46;101151.04;1757538;79;20968;-85
2021/05/24 07:02:42;;;;;;;12.20;3.47;;;;;;;23.28;65.57;101159.05;1783106;79;21052;-85
2021/05/24 07:05:10;;;;;;;4.62;2.30;;;;;;;23.16;66.15;101165.82;1775931;79;21087;-85
2021/05/24 07:07:36;;;;;;;4.35;2.15;;;;;;;23.11;68.98;101166.80;1791782;79;21124;-85
2021/05/24 07:10:04;;;;;;;5.45;2.20;;;;;;;23.03;72.45;101166.84;1780195;79;21567;-85
2021/05/24 07:12:31;;;;;;;9.15;2.55;;;;;;;22.90;76.78;101169.45;1771932;79;21138;-84
2021/05/24 07:14:57;;;;;;;8.30;2.15;;;;;;;22.85;76.38;101167.45;1777323;79;22278;-86
2021/05/24 07:17:23;;;;;;;6.22;2.00;;;;;;;22.82;83.94;101168.11;1794539;79;21049;-85
2021/05/24 07:19:51;;;;;;;8.33;2.40;;;;;;;22.75;85.30;101173.31;1794214;79;21053;-84
2021/05/24 07:22:18;;;;;;;15.40;2.83;;;;;;;22.86;79.79;101170.45;1794289;79;21081;-85
2021/05/24 07:24:44;;;;;;;10.58;2.77;;;;;;;22.94;80.02;101166.05;1794479;79;21653;-84
2021/05/24 07:27:11;;;;;;;9.18;3.50;;;;;;;22.92;87.09;101168.33;1779855;79;21175;-84
2021/05/24 07:29:39;;;;;;;10.53;3.90;;;;;;;23.21;76.32;101162.09;1779633;79;21049;-85
2021/05/24 07:32:10;;;;;;;6.28;3.27;;;;;;;22.86;79.19;101171.26;1774356;78;21135;-85
2021/05/24 07:34:34;;;;;;;11.43;3.87;;;;;;;22.98;75.38;101176.09;1757867;80;21044;-84
2021/05/24 07:37:01;;;;;;;15.05;4.30;;;;;;;22.76;79.02;101171.59;1734816;80;21595;-84
2021/05/24 07:39:27;;;;;;;16.82;4.72;;;;;;;22.64;81.13;101172.84;1764186;79;21612;-84
2021/05/24 07:41:52;;;;;;;12.23;4.28;;;;;;;22.66;81.02;101160.98;1775898;79;20979;-84
2021/05/24 07:44:18;;;;;;;11.25;4.37;;;;;;;22.83;81.02;101160.13;1792097;78;20831;-84
2021/05/24 07:46:45;;;;;;;11.68;4.40;;;;;;;22.99;79.99;101161.20;1796820;79;20947;-84
2021/05/24 07:49:11;;;;;;;14.70;5.22;;;;;;;23.00;85.71;101157.88;1796682;79;21117;-86
2021/05/24 07:51:37;;;;;;;14.03;5.10;;;;;;;23.07;87.89;101156.23;1781291;79;20838;-86
2021/05/24 07:54:03;;;;;;;16.62;5.50;;;;;;;23.31;85.39;101157.58;1791754;79;20969;-86
2021/05/24 07:56:29;;;;;;;13.18;5.87;;;;;;;23.53;82.56;101162.79;1758147;78;22484;-86
2021/05/24 07:58:55;;;;;;;22.10;6.83;;;;;;;23.49;88.39;101166.53;1790798;78;20973;-87
2021/05/24 08:01:21;;;;;;;18.73;5.78;;;;;;;23.58;86.99;101166.70;1800629;78;21059;-86
2021/05/24 08:03:47;;;;;;;17.62;5.95;;;;;;;23.65;86.97;101168.11;1782233;79;20961;-87
2021/05/24 08:06:14;;;;;;;20.30;6.75;;;;;;;23.98;82.87;101164.11;1782325;79;20988;-84
2021/05/24 08:08:41;;;;;;;16.23;6.53;;;;;;;24.01;86.57;101172.49;1795588;79;20985;-84
2021/05/24 08:11:07;;;;;;;22.05;7.37;;;;;;;24.31;82.27;101177.09;1819132;78;21071;-83
2021/05/24 08:13:33;;;;;;;23.65;6.87;;;;;;;24.43;84.18;101182.67;1795702;79;21134;-90
2021/05/24 08:15:59;;;;;;;23.18;6.72;;;;;;;24.54;83.83;101191.33;1795789;79;20859;-87
2021/05/24 08:18:25;;;;;;;16.87;6.10;;;;;;;24.79;79.26;101190.22;1795351;79;21016;-86
2021/05/24 08:20:51;;;;;;;18.25;7.72;;;;;;;24.63;75.02;101192.05;1769202;80;20963;-87
2021/05/24 08:23:18;;;;;;;18.05;6.97;;;;;;;24.60;75.71;101189.39;1782708;80;20860;-87
2021/05/24 08:25:44;;;;;;;28.27;8.58;;;;;;;24.67;72.22;101191.58;1783038;80;21224;-87
2021/05/24 08:28:12;;;;;;;23.32;7.83;;;;;;;24.48;72.85;101190.16;1782726;80;20963;-88
2021/05/24 08:30:39;;;;;;;23.50;7.55;;;;;;;24.41;73.73;101196.78;1783148;80;21059;-87
2021/05/24 08:33:05;;;;;;;25.72;7.87;;;;;;;24.30;75.50;101198.34;1782962;80;21050;-87
2021/05/24 08:35:31;;;;;;;21.10;7.08;;;;;;;24.11;76.76;101203.52;1760943;80;21199;-87
2021/05/24 08:37:57;;;;;;;22.45;7.22;;;;;;;24.12;77.16;101204.57;1760846;80;21790;-86
2021/05/24 08:40:23;;;;;;;27.42;7.87;;;;;;;24.11;76.60;101212.58;1782790;78;21103;-87
2021/05/24 08:42:50;;;;;;;19.65;7.42;;;;;;;24.10;77.51;101215.11;1774120;78;20999;-86
2021/05/24 08:45:17;;;;;;;25.62;7.78;;;;;;;23.99;82.04;101213.89;1782732;78;21039;-88
2021/05/24 08:47:43;;;;;;;19.85;8.10;;;;;;;23.96;82.33;101209.86;1789205;80;21044;-88
2021/05/24 08:50:10;;;;;;;20.45;7.42;;;;;;;24.10;77.69;101208.22;1789377;80;21091;-84
2021/05/24 08:52:36;;;;;;;18.92;7.03;;;;;;;23.67;83.84;101205.75;1789085;78;21036;-82
2021/05/24 08:55:03;;;;;;;20.45;7.00;;;;;;;23.60;85.46;101207.66;1789291;79;20885;-82
2021/05/24 08:57:29;;;;;;;14.00;6.10;;;;;;;23.09;90.12;101200.72;1785765;78;21735;-82
2021/05/24 08:59:55;;;;;;;17.27;5.75;;;;;;;22.94;91.89;101193.53;1789622;80;21012;-82
2021/05/24 09:02:21;;;;;;;15.18;5.62;;;;;;;22.71;92.84;101196.53;1789526;80;21102;-82
2021/05/24 09:04:51;;;;;;;15.70;5.92;;;;;;;22.35;100.00;101204.56;1789438;78;21017;-82
2021/05/24 09:07:18;;;;;;;12.98;4.70;;;;;;;22.14;100.00;101211.25;1789077;80;21056;-82
2021/05/24 09:10:06;;;;;;;16.45;5.95;;;;;;;22.00;100.00;101210.05;1789415;80;21136;-82
2021/05/24 09:12:32;;;;;;;11.65;5.05;;;;;;;21.78;100.00;101216.47;1769643;80;21087;-82
2021/05/24 09:15:02;;;;;;;10.10;5.05;;;;;;;21.65;100.00;101215.22;1774160;80;21103;-82
2021/05/24 09:17:53;;;;;;;15.75;5.53;;;;;;;21.38;100.00;101213.54;1750503;79;21064;-81
2021/05/24 09:20:39;;;;;;;12.82;4.92;;;;;;;21.21;100.00;101215.08;1747623;81;21141;-82
2021/05/24 09:23:13;;;;;;;19.02;4.17;;;;;;;20.97;100.00;101213.25;1699723;83;21077;-82
2021/05/24 09:26:08;;;;;;;14.53;4.65;;;;;;;20.78;100.00;101212.12;1679233;85;21054;-82
2021/05/24 09:28:39;;;;;;;8.28;3.80;;;;;;;20.53;100.00;101207.55;1678571;85;21301;-82
2021/05/24 09:31:24;;;;;;;10.25;3.52;;;;;;;20.29;100.00;101207.80;1676005;85;21068;-82
2021/05/24 09:36:24;;;;;;;14.18;4.10;;;;;;;19.81;100.00;101205.62;1662794;85;21645;-81
2021/05/24 09:39:01;;;;;;;18.65;5.67;;;;;;;19.50;100.00;101184.91;1652565;85;21091;-81
2021/05/24 09:41:27;;;;;;;12.28;4.42;;;;;;;19.14;100.00;101193.83;1601936;87;21191;-81
2021/05/24 09:43:57;;;;;;;10.75;4.50;;;;;;;18.73;100.00;101212.85;1602344;87;21161;-81
2021/05/24 09:49:03;;;;;;;11.40;4.75;;;;;;;18.80;100.00;101200.47;1575439;90;21069;-81
2021/05/24 09:51:38;;;;;;;15.68;5.33;;;;;;;18.81;100.00;101226.66;1538497;92;21257;-81
2021/05/24 09:54:13;;;;;;;11.53;4.03;;;;;;;18.82;100.00;101231.56;1584803;90;21942;-82
2021/05/24 09:56:45;;;;;;;14.85;5.28;;;;;;;18.91;100.00;101225.66;1590679;90;21114;-82
2021/05/24 09:59:22;;;;;;;10.13;4.90;;;;;;;18.72;100.00;101214.78;1558216;92;21069;-82
2021/05/24 10:01:54;;;;;;;13.68;4.62;;;;;;;18.48;100.00;101247.66;1565389;90;21108;-83
2021/05/24 10:04:24;;;;;;;14.13;4.85;;;;;;;18.51;100.00;101241.61;1568208;89;21191;-83
2021/05/24 10:06:51;;;;;;;13.65;5.30;;;;;;;18.41;100.00;101234.92;1555178;92;21081;-83
2021/05/24 10:09:19;;;;;;;14.23;5.62;;;;;;;18.42;100.00;101222.92;1538095;92;21611;-83
2021/05/24 10:11:53;;;;;;;14.43;5.65;;;;;;;18.29;100.00;101229.11;1555068;92;21090;-83
2021/05/24 10:14:22;;;;;;;13.62;6.08;;;;;;;18.20;100.00;101224.88;1557833;92;21099;-83
2021/05/24 10:16:57;;;;;;;11.20;5.62;;;;;;;18.23;100.00;101228.94;1558172;92;21473;-83
2021/05/24 10:19:22;;;;;;;15.90;5.95;;;;;;;18.33;100.00;101221.98;1528277;92;21140;-83
2021/05/24 10:21:51;;;;;;;12.65;6.20;;;;;;;18.31;100.00;101208.61;1571683;90;21664;-82
2021/05/24 10:26:48;;;;;;;12.95;5.15;;;;;;;18.33;100.00;101191.95;1544774;91;21140;-83
2021/05/24 10:29:17;;;;;;;9.98;5.05;;;;;;;18.27;100.00;101188.50;1554860;91;21149;-83
2021/05/24 10:31:44;;;;;;;10.48;4.50;;;;;;;18.38;100.00;101178.21;1536768;92;21195;-83
2021/05/24 10:34:19;;;;;;;16.02;5.15;;;;;;;18.28;100.00;101172.94;1544881;91;21606;-82
2021/05/24 10:36:50;;;;;;;10.95;4.83;;;;;;;18.33;100.00;101174.22;1517796;93;21127;-82
2021/05/24 10:39:25;;;;;;;8.08;4.17;;;;;;;18.25;100.00;101185.25;1577146;89;21087;-83
2021/05/24 10:42:01;;;;;;;11.40;4.70;;;;;;;18.19;100.00;101181.53;1550880;91;21089;-83
2021/05/24 10:44:40;;;;;;;9.90;4.25;;;;;;;18.21;100.00;101167.05;1574991;89;21196;-82
2021/05/24 10:47:27;;;;;;;8.98;3.77;;;;;;;18.25;100.00;101162.05;1604541;87;21108;-82
2021/05/24 10:50:06;;;;;;;7.42;3.20;;;;;;;18.37;100.00;101152.84;1581325;90;21056;-82
2021/05/24 10:52:38;;;;;;;6.30;3.27;;;;;;;18.33;100.00;101140.92;1583748;90;21206;-83
2021/05/24 10:55:29;;;;;;;9.23;3.77;;;;;;;18.28;100.00;101146.45;1538041;90;21296;-83
2021/05/24 10:58:01;;;;;;;6.60;3.72;;;;;;;18.23;100.00;101130.72;1589163;90;21142;-83
2021/05/24 11:00:28;;;;;;;6.12;3.50;;;;;;;18.05;100.00;101112.72;1585353;88;21202;-83
2021/05/24 11:02:56;;;;;;;6.50;3.30;;;;;;;17.78;100.00;101108.52;1590967;88;21825;-83
2021/05/24 11:05:30;;;;;;;7.22;3.17;;;;;;;18.00;100.00;101100.55;1584367;88;21111;-83
2021/05/24 11:08:01;;;;;;;7.50;3.30;;;;;;;17.83;100.00;101094.81;1571458;90;21809;-84
2021/05/24 11:10:30;;;;;;;6.58;3.02;;;;;;;17.99;100.00;101092.65;1503470;93;22223;-82
2021/05/24 11:13:11;;;;;;;7.22;2.83;;;;;;;17.95;100.00;101097.09;1503636;95;21129;-83
2021/05/24 11:15:40;;;;;;;7.05;2.83;;;;;;;18.03;100.00;101082.22;1503148;93;21189;-83
2021/05/24 11:18:11;;;;;;;4.50;2.95;;;;;;;17.99;100.00;101074.36;1502921;93;21109;-83
2021/05/24 11:21:01;;;;;;;9.03;2.87;;;;;;;17.88;100.00;101053.81;1502126;93;21149;-83
2021/05/24 11:26:33;;;;;;;5.60;3.62;;;;;;;17.73;100.00;101049.38;1525524;92;21127;-82
2021/05/24 11:29:11;;;;;;;4.80;3.27;;;;;;;17.74;100.00;101101.45;1526447;92;21703;-81
2021/05/24 11:31:56;;;;;;;;;;;;;;;;;;;;;
2021/05/24 11:34:34;;;;;;;7.60;3.45;;;;;;;18.59;100.00;101098.17;1490730;95;21104;-82